createdAt,value
2022-08-11T00:01:37.703Z,9.27
2022-08-11T00:04:43.121Z,9.32
2022-08-11T00:07:55.780Z,10.63
2022-08-11T00:11:06.727Z,10.25
2022-08-11T00:14:21.451Z,6.88
2022-08-11T00:17:30.360Z,6.15
2022-08-11T00:20:37.302Z,9.73
2022-08-11T00:23:45.612Z,8.05
2022-08-11T00:26:51.848Z,7.78
2022-08-11T00:29:56.024Z,9.05
2022-08-11T00:33:00.584Z,7.85
2022-08-11T00:36:05.471Z,6.68
2022-08-11T00:39:11.363Z,5.45
2022-08-11T00:42:49.069Z,9.77
2022-08-11T00:46:27.737Z,5.43
2022-08-11T00:49:46.457Z,7.05
2022-08-11T00:53:29.723Z,10.43
2022-08-11T00:56:42.858Z,8.35
2022-08-11T01:00:23.975Z,9.88
2022-08-11T01:03:53.848Z,14.18
2022-08-11T01:08:03.029Z,16.73
2022-08-11T01:10:54.345Z,11.13
2022-08-11T01:14:19.179Z,9.32
2022-08-11T01:18:13.614Z,16.90
2022-08-11T01:22:02.245Z,10.43
2022-08-11T01:25:24.056Z,11.90
2022-08-11T01:28:49.966Z,13.75
2022-08-11T01:32:30.240Z,13.77
2022-08-11T01:35:49.273Z,7.07
2022-08-11T01:39:20.839Z,10.30
2022-08-11T01:42:57.490Z,15.38
2022-08-11T01:46:27.533Z,8.38
2022-08-11T01:50:07.639Z,5.60
2022-08-11T01:53:35.624Z,9.32
2022-08-11T01:56:42.372Z,16.75
2022-08-11T01:59:50.969Z,10.32
2022-08-11T02:03:20.075Z,13.98
2022-08-11T02:06:56.153Z,10.88
2022-08-11T02:10:35.288Z,14.00
2022-08-11T02:14:04.560Z,13.02
2022-08-11T02:17:35.248Z,11.63
2022-08-11T02:21:13.825Z,12.15
2022-08-11T02:24:26.689Z,17.63
2022-08-11T02:27:50.871Z,13.20
2022-08-11T02:32:14.234Z,17.77
2022-08-11T02:35:07.046Z,16.35
2022-08-11T02:38:48.767Z,16.40
2022-08-11T02:42:35.136Z,14.70
2022-08-11T02:45:55.429Z,11.02
2022-08-11T02:49:23.319Z,14.60
2022-08-11T02:52:56.353Z,12.85
2022-08-11T02:56:15.760Z,13.55
2022-08-11T02:59:47.518Z,11.90
2022-08-11T03:03:17.843Z,11.20
2022-08-11T03:06:35.183Z,15.15
2022-08-11T03:13:27.907Z,11.68
2022-08-11T03:16:47.503Z,11.73
2022-08-11T03:20:10.135Z,8.07
2022-08-11T03:23:40.160Z,15.30
2022-08-11T03:27:04.622Z,12.27
2022-08-11T03:30:16.603Z,6.80
2022-08-11T03:33:55.564Z,9.35
2022-08-11T03:37:51.903Z,7.20
2022-08-11T03:42:02.059Z,4.95
2022-08-11T03:45:23.125Z,6.05
2022-08-11T03:49:06.522Z,8.35
2022-08-11T03:52:18.213Z,7.82
2022-08-11T03:55:40.904Z,7.32
2022-08-11T03:58:54.286Z,8.52
2022-08-11T04:02:15.896Z,8.40
2022-08-11T04:06:08.363Z,7.70
2022-08-11T04:09:49.638Z,5.78
2022-08-11T04:13:24.031Z,9.90
2022-08-11T04:16:47.699Z,7.22
2022-08-11T04:20:25.443Z,6.28
2022-08-11T04:24:34.687Z,10.88
2022-08-11T04:27:48.369Z,10.52
2022-08-11T04:31:50.754Z,7.45
2022-08-11T04:35:12.135Z,9.52
2022-08-11T04:41:59.752Z,6.75
2022-08-11T04:45:10.549Z,12.07
2022-08-11T04:48:54.337Z,9.80
2022-08-11T04:52:35.962Z,9.27
2022-08-11T04:56:25.340Z,8.07
2022-08-11T05:00:16.523Z,7.53
2022-08-11T05:03:41.355Z,12.05
2022-08-11T05:07:23.802Z,9.30
2022-08-11T05:10:56.748Z,6.50
2022-08-11T05:14:44.721Z,14.90
2022-08-11T05:18:18.083Z,7.13
2022-08-11T05:21:45.095Z,13.70
2022-08-11T05:26:44.927Z,9.75
2022-08-11T05:29:20.125Z,8.80
2022-08-11T05:32:43.424Z,6.88
2022-08-11T05:36:00.537Z,5.82
2022-08-11T05:39:36.819Z,5.55
2022-08-11T05:43:08.044Z,7.40
2022-08-11T05:46:30.053Z,8.30
2022-08-11T05:49:58.125Z,4.85
2022-08-11T05:53:23.480Z,6.30
2022-08-11T05:56:26.967Z,10.43
2022-08-11T05:59:33.844Z,5.60
2022-08-11T06:03:00.544Z,7.95
2022-08-11T06:06:10.148Z,8.80
2022-08-11T06:09:14.991Z,9.98
2022-08-11T06:12:25.015Z,10.13
2022-08-11T06:15:29.751Z,8.57
2022-08-11T06:18:35.446Z,5.45
2022-08-11T06:21:45.325Z,6.38
2022-08-11T06:24:59.717Z,6.28
2022-08-11T06:28:09.101Z,5.38
2022-08-11T06:31:20.017Z,6.72
2022-08-11T06:34:54.005Z,5.75
2022-08-11T06:38:11.755Z,8.25
2022-08-11T06:41:41.585Z,5.07
2022-08-11T06:45:01.650Z,6.05
2022-08-11T06:48:07.696Z,12.38
2022-08-11T06:51:13.444Z,8.50
2022-08-11T06:54:17.115Z,6.25
2022-08-11T06:57:40.459Z,10.80
2022-08-11T07:00:47.764Z,7.72
2022-08-11T07:04:07.049Z,8.50
2022-08-11T07:07:31.730Z,17.00
2022-08-11T07:11:09.009Z,11.20
2022-08-11T07:14:36.364Z,13.93
2022-08-11T07:17:50.349Z,19.98
2022-08-11T07:22:00.106Z,18.33
2022-08-11T07:25:32.936Z,9.80
2022-08-11T07:29:01.570Z,12.85
2022-08-11T07:32:16.642Z,9.95
2022-08-11T07:35:25.644Z,12.98
2022-08-11T07:38:47.480Z,6.30
2022-08-11T07:41:54.433Z,11.10
2022-08-11T07:45:18.728Z,5.47
2022-08-11T07:48:40.647Z,7.57
2022-08-11T07:52:04.039Z,5.50
2022-08-11T07:55:14.067Z,7.38
2022-08-11T07:58:45.534Z,3.10
2022-08-11T08:02:14.431Z,5.68
2022-08-11T08:05:38.853Z,7.85
2022-08-11T08:09:01.647Z,5.13
2022-08-11T08:12:25.193Z,5.20
2022-08-11T08:15:47.969Z,7.47
2022-08-11T08:18:52.116Z,4.07
2022-08-11T08:22:37.320Z,4.40
2022-08-11T08:25:20.274Z,3.87
2022-08-11T08:28:26.909Z,8.20
2022-08-11T08:31:34.823Z,5.35
2022-08-11T08:34:40.734Z,3.27
2022-08-11T08:37:47.552Z,6.03
2022-08-11T08:40:56.287Z,5.95
2022-08-11T08:47:42.432Z,7.18
2022-08-11T08:51:12.891Z,6.40
2022-08-11T08:54:22.932Z,7.70
2022-08-11T08:57:30.359Z,5.80
2022-08-11T09:00:45.219Z,8.70
2022-08-11T09:04:07.205Z,8.10
2022-08-11T09:07:18.392Z,7.72
2022-08-11T09:10:22.598Z,7.78
2022-08-11T09:13:28.440Z,5.53
2022-08-11T09:16:32.228Z,8.88
2022-08-11T09:19:35.906Z,9.13
2022-08-11T09:26:44.453Z,8.52
2022-08-11T09:29:48.625Z,6.18
2022-08-11T09:32:58.544Z,6.03
2022-08-11T09:36:25.033Z,6.65
2022-08-11T09:39:49.631Z,5.55
2022-08-11T09:43:12.333Z,5.55
2022-08-11T09:46:15.997Z,6.47
2022-08-11T09:49:22.303Z,11.65
2022-08-11T09:52:26.467Z,5.45
2022-08-11T09:55:30.525Z,6.80
2022-08-11T09:58:41.710Z,7.50
2022-08-11T10:01:50.027Z,4.57
2022-08-11T10:05:20.522Z,5.93
2022-08-11T10:08:30.018Z,6.90
2022-08-11T10:11:35.630Z,5.10
2022-08-11T10:15:10.767Z,4.88
2022-08-11T10:18:43.098Z,10.77
2022-08-11T10:22:12.052Z,6.07
2022-08-11T10:25:35.440Z,4.82
2022-08-11T10:28:55.798Z,5.60
2022-08-11T10:32:27.081Z,6.40
2022-08-11T10:35:35.889Z,7.85
2022-08-11T10:38:39.615Z,10.68
2022-08-11T10:42:07.315Z,13.45
2022-08-11T10:45:35.309Z,7.65
2022-08-11T10:48:40.212Z,11.48
2022-08-11T10:52:02.242Z,6.60
2022-08-11T10:55:26.101Z,13.35
2022-08-11T10:58:49.724Z,16.83
2022-08-11T11:01:54.592Z,13.52
2022-08-11T11:05:04.202Z,10.02
2022-08-11T11:08:33.920Z,16.10
2022-08-11T11:12:02.058Z,10.15
2022-08-11T11:15:26.802Z,11.30
2022-08-11T11:18:36.443Z,14.63
2022-08-11T11:21:43.071Z,17.40
2022-08-11T11:25:20.324Z,20.60
2022-08-11T11:28:40.488Z,14.18
2022-08-11T11:32:15.833Z,14.82
2022-08-11T11:35:27.158Z,8.15
2022-08-11T11:38:31.132Z,13.77
2022-08-11T11:41:36.215Z,9.38
2022-08-11T11:44:44.260Z,9.85
2022-08-11T11:47:53.770Z,9.38
2022-08-11T11:50:58.627Z,10.95
2022-08-11T11:54:04.666Z,5.35
2022-08-11T11:57:27.546Z,8.67
2022-08-11T12:00:50.420Z,7.32
2022-08-11T12:03:56.191Z,12.77
2022-08-11T12:07:20.792Z,15.70
2022-08-11T12:10:25.385Z,12.15
2022-08-11T12:13:42.128Z,8.05
2022-08-11T12:16:47.898Z,22.48
2022-08-11T12:19:53.071Z,36.92
2022-08-11T12:23:19.022Z,10.38
2022-08-11T12:26:42.572Z,17.85
2022-08-11T12:29:55.042Z,11.68
2022-08-11T12:32:59.778Z,8.95
2022-08-11T12:36:03.943Z,13.25
2022-08-11T12:39:23.006Z,10.45
2022-08-11T12:42:46.771Z,6.55
2022-08-11T12:46:02.355Z,13.10
2022-08-11T12:49:49.054Z,18.95
2022-08-11T12:52:57.577Z,16.83
2022-08-11T12:56:38.929Z,12.40
2022-08-11T13:00:01.692Z,9.65
2022-08-11T13:03:27.277Z,15.57
2022-08-11T13:06:31.314Z,15.85
2022-08-11T13:09:34.281Z,13.80
2022-08-11T13:12:50.337Z,10.25
2022-08-11T13:15:54.677Z,16.02
2022-08-11T13:19:01.953Z,12.35
2022-08-11T13:22:07.761Z,13.25
2022-08-11T13:25:14.915Z,12.85
2022-08-11T13:28:21.864Z,47.42
2022-08-11T13:31:25.397Z,32.20
2022-08-11T13:34:31.726Z,20.48
2022-08-11T13:38:19.474Z,15.45
2022-08-11T13:41:02.161Z,15.80
2022-08-11T13:44:08.140Z,15.88
2022-08-11T13:47:15.851Z,14.45
2022-08-11T13:50:20.246Z,26.55
2022-08-11T13:53:26.570Z,25.23
2022-08-11T13:56:30.893Z,27.08
2022-08-11T13:59:35.397Z,25.50
2022-08-11T14:02:56.260Z,25.88
2022-08-11T14:06:04.067Z,27.77
2022-08-11T14:09:10.912Z,19.67
2022-08-11T14:15:43.211Z,23.02
2022-08-11T14:18:49.397Z,36.45
2022-08-11T14:22:11.124Z,35.87
2022-08-11T14:25:17.313Z,24.08
2022-08-11T14:28:30.905Z,19.75
2022-08-11T14:31:45.011Z,17.15
2022-08-11T14:34:50.322Z,15.43
2022-08-11T14:37:54.936Z,14.75
2022-08-11T14:41:17.297Z,10.82
2022-08-11T14:44:40.279Z,25.80
2022-08-11T14:47:49.315Z,16.50
2022-08-11T14:50:54.061Z,14.40
2022-08-11T14:54:19.213Z,7.50
2022-08-11T14:57:55.370Z,9.63
2022-08-11T15:00:51.381Z,20.30
2022-08-11T15:04:31.301Z,15.90
2022-08-11T15:07:20.661Z,13.02
2022-08-11T15:10:27.968Z,13.45
2022-08-11T15:13:33.803Z,11.50
2022-08-11T15:17:04.029Z,15.55
2022-08-11T15:20:32.967Z,21.30
2022-08-11T15:23:54.796Z,13.52
2022-08-11T15:27:20.866Z,18.73
2022-08-11T15:30:44.795Z,16.80
2022-08-11T15:34:12.893Z,16.50
2022-08-11T15:37:27.934Z,16.45
2022-08-11T15:40:57.434Z,15.90
2022-08-11T15:44:29.904Z,19.00
2022-08-11T15:48:05.241Z,16.88
2022-08-11T15:51:33.643Z,11.93
2022-08-11T15:54:42.925Z,15.93
2022-08-11T15:58:08.199Z,12.30
2022-08-11T16:01:33.893Z,16.40
2022-08-11T16:04:39.208Z,15.18
2022-08-11T16:07:47.844Z,14.13
2022-08-11T16:10:56.809Z,14.38
2022-08-11T16:14:24.019Z,13.20
2022-08-11T16:17:34.410Z,11.68
2022-08-11T16:20:38.764Z,12.27
2022-08-11T16:23:45.918Z,12.45
2022-08-11T16:27:11.048Z,16.08
2022-08-11T16:30:18.446Z,10.45
2022-08-11T16:33:49.932Z,8.73
2022-08-11T16:40:12.395Z,10.73
2022-08-11T16:43:38.501Z,10.77
2022-08-11T16:47:00.611Z,16.13
2022-08-11T16:50:05.597Z,13.13
2022-08-11T16:53:09.336Z,13.15
2022-08-11T16:56:17.798Z,13.25
2022-08-11T16:59:33.336Z,10.15
2022-08-11T17:03:00.628Z,9.55
2022-08-11T17:06:24.667Z,12.88
2022-08-11T17:09:51.469Z,9.20
2022-08-11T17:13:09.839Z,11.60
2022-08-11T17:16:15.382Z,8.85
2022-08-11T17:20:41.566Z,7.75
2022-08-11T17:23:13.100Z,10.65
2022-08-11T17:26:57.509Z,6.57
2022-08-11T17:30:05.711Z,9.30
2022-08-11T17:33:27.332Z,7.03
2022-08-11T17:36:30.655Z,8.07
2022-08-11T17:39:36.220Z,6.80
2022-08-11T17:43:01.647Z,10.48
2022-08-11T17:46:23.195Z,7.63
2022-08-11T17:49:31.750Z,6.60
2022-08-11T17:52:54.854Z,9.23
2022-08-11T17:56:34.389Z,6.97
2022-08-11T17:59:57.501Z,10.88
2022-08-11T18:03:21.403Z,5.75
2022-08-11T18:06:33.922Z,14.00
2022-08-11T18:09:56.471Z,12.50
2022-08-11T18:13:18.756Z,14.98
2022-08-11T18:16:42.470Z,12.15
2022-08-11T18:20:04.232Z,12.90
2022-08-11T18:23:40.594Z,9.93
2022-08-11T18:27:10.411Z,8.02
2022-08-11T18:30:32.842Z,10.63
2022-08-11T18:34:10.151Z,8.50
2022-08-11T18:37:44.683Z,7.47
2022-08-11T18:41:08.978Z,13.23
2022-08-11T18:44:35.328Z,10.77
2022-08-11T18:47:59.158Z,14.77
2022-08-11T18:51:30.012Z,14.57
2022-08-11T18:54:56.922Z,7.93
2022-08-11T18:58:22.411Z,7.93
2022-08-11T19:01:46.198Z,9.52
2022-08-11T19:05:10.162Z,5.95
2022-08-11T19:08:32.406Z,11.98
2022-08-11T19:11:57.218Z,8.18
2022-08-11T19:15:24.188Z,10.60
2022-08-11T19:18:47.441Z,7.43
2022-08-11T19:22:11.267Z,6.63
2022-08-11T19:25:35.457Z,8.43
2022-08-11T19:29:00.620Z,4.72
2022-08-11T19:32:23.551Z,6.70
2022-08-11T19:35:46.125Z,9.07
2022-08-11T19:39:10.461Z,5.63
2022-08-11T19:42:33.770Z,7.30
2022-08-11T19:45:57.441Z,9.60
2022-08-11T19:49:20.863Z,5.88
2022-08-11T19:52:44.721Z,5.45
2022-08-11T19:56:08.137Z,4.57
2022-08-11T19:59:30.826Z,6.25
2022-08-11T20:02:52.965Z,6.47
2022-08-11T20:06:22.144Z,5.85
2022-08-11T20:10:06.185Z,4.57
2022-08-11T20:13:28.899Z,8.50
2022-08-11T20:16:53.156Z,6.30
2022-08-11T20:20:18.263Z,5.72
2022-08-11T20:23:41.219Z,6.90
2022-08-11T20:27:04.516Z,6.22
2022-08-11T20:30:27.389Z,6.70
2022-08-11T20:33:51.838Z,5.15
2022-08-11T20:37:15.264Z,6.30
2022-08-11T20:40:43.055Z,7.50
2022-08-11T20:44:09.104Z,6.05
2022-08-11T20:47:59.715Z,5.00
2022-08-11T20:51:17.949Z,7.68
2022-08-11T20:54:44.725Z,7.55
2022-08-11T20:58:11.122Z,5.38
2022-08-11T21:01:42.102Z,5.45
2022-08-11T21:05:04.696Z,4.40
2022-08-11T21:08:27.395Z,5.47
2022-08-11T21:11:53.411Z,5.25
2022-08-11T21:15:38.848Z,4.97
2022-08-11T21:19:02.974Z,7.78
2022-08-11T21:22:28.121Z,6.50
2022-08-11T21:25:55.524Z,5.38
2022-08-11T21:29:22.348Z,8.43
2022-08-11T21:32:45.227Z,6.53
2022-08-11T21:36:07.897Z,7.82
2022-08-11T21:39:36.101Z,4.72
2022-08-11T21:43:01.995Z,9.00
2022-08-11T21:46:27.353Z,6.57
2022-08-11T21:49:59.056Z,7.60
2022-08-11T21:53:21.990Z,8.88
2022-08-11T21:56:45.826Z,6.50
2022-08-11T22:00:16.834Z,7.35
2022-08-11T22:03:50.092Z,7.13
2022-08-11T22:07:13.075Z,6.65
2022-08-11T22:10:41.026Z,7.07
2022-08-11T22:14:07.926Z,12.23
2022-08-11T22:17:29.912Z,9.80
2022-08-11T22:20:54.503Z,9.57
2022-08-11T22:24:18.412Z,14.18
2022-08-11T22:27:52.886Z,13.10
2022-08-11T22:31:15.412Z,16.27
2022-08-11T22:34:44.936Z,10.30
2022-08-11T22:38:17.786Z,12.45
2022-08-11T22:41:42.029Z,14.63
2022-08-11T22:45:04.160Z,15.90
2022-08-11T22:48:28.759Z,8.40
2022-08-11T22:51:52.006Z,9.15
2022-08-11T22:55:16.003Z,11.88
2022-08-11T22:58:40.313Z,12.05
2022-08-11T23:02:03.052Z,14.98
2022-08-11T23:05:26.920Z,10.00
2022-08-11T23:08:49.624Z,11.70
2022-08-11T23:12:12.457Z,10.35
2022-08-11T23:15:35.015Z,11.45
2022-08-11T23:19:02.300Z,12.52
2022-08-11T23:22:35.933Z,7.70
2022-08-11T23:26:10.743Z,8.18
2022-08-11T23:29:35.544Z,14.80
2022-08-11T23:32:59.067Z,12.85
2022-08-11T23:36:36.234Z,11.05
2022-08-11T23:40:05.234Z,6.47
2022-08-11T23:43:27.756Z,7.38
2022-08-11T23:46:50.854Z,8.52
2022-08-11T23:50:16.291Z,7.03
2022-08-11T23:53:40.611Z,9.05
2022-08-11T23:57:03.687Z,9.95
